sensor_id;sensor_type;location;lat;lon;timestamp;P1;durP1;ratioP1;P2;durP2;ratioP2
61025;SDS011;46911;32.650;-16.902;2023-10-19T00:01:22;4.93;;;0.57;;
61025;SDS011;46911;32.650;-16.902;2023-10-19T00:03:29;3.97;;;0.65;;
61025;SDS011;46911;32.650;-16.902;2023-10-19T00:05:30;9.13;;;0.75;;
61025;SDS011;46911;32.650;-16.902;2023-10-19T00:07:33;2.47;;;0.90;;
61025;SDS011;46911;32.650;-16.902;2023-10-19T00:09:41;5.32;;;0.52;;
61025;SDS011;46911;32.650;-16.902;2023-10-19T00:11:46;5.22;;;1.13;;
61025;SDS011;46911;32.650;-16.902;2023-10-19T00:13:51;3.40;;;0.50;;
61025;SDS011;46911;32.650;-16.902;2023-10-19T00:16:00;4.17;;;0.80;;
61025;SDS011;46911;32.650;-16.902;2023-10-19T00:18:01;4.78;;;0.93;;
61025;SDS011;46911;32.650;-16.902;2023-10-19T00:20:30;4.70;;;0.80;;
61025;SDS011;46911;32.650;-16.902;2023-10-19T00:22:34;10.13;;;1.00;;
61025;SDS011;46911;32.650;-16.902;2023-10-19T00:24:37;9.55;;;0.93;;
61025;SDS011;46911;32.650;-16.902;2023-10-19T00:26:39;8.30;;;1.60;;
61025;SDS011;46911;32.650;-16.902;2023-10-19T00:28:44;6.50;;;1.02;;
61025;SDS011;46911;32.650;-16.902;2023-10-19T00:30:46;2.40;;;0.93;;
61025;SDS011;46911;32.650;-16.902;2023-10-19T00:32:52;6.63;;;0.90;;
61025;SDS011;46911;32.650;-16.902;2023-10-19T00:34:54;7.10;;;1.55;;
61025;SDS011;46911;32.650;-16.902;2023-10-19T00:36:55;5.22;;;0.88;;
61025;SDS011;46911;32.650;-16.902;2023-10-19T00:38:59;5.63;;;0.95;;
61025;SDS011;46911;32.650;-16.902;2023-10-19T00:41:06;4.60;;;0.88;;
61025;SDS011;46911;32.650;-16.902;2023-10-19T00:43:12;8.60;;;1.48;;
61025;SDS011;46911;32.650;-16.902;2023-10-19T00:45:16;5.00;;;1.00;;
61025;SDS011;46911;32.650;-16.902;2023-10-19T00:47:25;7.65;;;0.80;;
61025;SDS011;46911;32.650;-16.902;2023-10-19T00:49:30;4.32;;;0.80;;
61025;SDS011;46911;32.650;-16.902;2023-10-19T00:51:48;12.10;;;1.13;;
61025;SDS011;46911;32.650;-16.902;2023-10-19T00:53:55;5.60;;;1.15;;
61025;SDS011;46911;32.650;-16.902;2023-10-19T00:55:59;9.25;;;1.02;;
61025;SDS011;46911;32.650;-16.902;2023-10-19T00:58:06;11.52;;;2.33;;
61025;SDS011;46911;32.650;-16.902;2023-10-19T01:00:10;8.45;;;0.98;;
61025;SDS011;46911;32.650;-16.902;2023-10-19T01:02:24;6.53;;;1.00;;
61025;SDS011;46911;32.650;-16.902;2023-10-19T01:04:25;10.88;;;1.20;;
61025;SDS011;46911;32.650;-16.902;2023-10-19T01:06:33;5.93;;;0.85;;
61025;SDS011;46911;32.650;-16.902;2023-10-19T01:08:34;4.00;;;0.98;;
61025;SDS011;46911;32.650;-16.902;2023-10-19T01:10:42;7.68;;;1.05;;
61025;SDS011;46911;32.650;-16.902;2023-10-19T01:12:48;6.90;;;0.80;;
61025;SDS011;46911;32.650;-16.902;2023-10-19T01:17:17;12.98;;;1.10;;
61025;SDS011;46911;32.650;-16.902;2023-10-19T01:19:20;10.82;;;1.55;;
61025;SDS011;46911;32.650;-16.902;2023-10-19T01:21:24;7.50;;;1.45;;
61025;SDS011;46911;32.650;-16.902;2023-10-19T01:23:38;7.68;;;1.17;;
61025;SDS011;46911;32.650;-16.902;2023-10-19T01:25:46;5.55;;;1.05;;
61025;SDS011;46911;32.650;-16.902;2023-10-19T01:27:57;8.90;;;1.13;;
61025;SDS011;46911;32.650;-16.902;2023-10-19T01:29:58;8.57;;;1.00;;
61025;SDS011;46911;32.650;-16.902;2023-10-19T01:32:02;11.75;;;1.63;;
61025;SDS011;46911;32.650;-16.902;2023-10-19T01:34:14;7.20;;;1.10;;
61025;SDS011;46911;32.650;-16.902;2023-10-19T01:36:20;7.35;;;0.57;;
61025;SDS011;46911;32.650;-16.902;2023-10-19T01:38:26;8.38;;;2.05;;
61025;SDS011;46911;32.650;-16.902;2023-10-19T01:40:31;4.38;;;1.13;;
61025;SDS011;46911;32.650;-16.902;2023-10-19T01:42:32;7.15;;;0.95;;
61025;SDS011;46911;32.650;-16.902;2023-10-19T01:44:33;10.30;;;1.00;;
61025;SDS011;46911;32.650;-16.902;2023-10-19T01:46:38;4.57;;;0.90;;
61025;SDS011;46911;32.650;-16.902;2023-10-19T01:48:40;2.97;;;0.73;;
61025;SDS011;46911;32.650;-16.902;2023-10-19T01:50:45;8.93;;;0.93;;
61025;SDS011;46911;32.650;-16.902;2023-10-19T01:52:48;7.35;;;1.00;;
61025;SDS011;46911;32.650;-16.902;2023-10-19T01:54:51;5.63;;;0.75;;
61025;SDS011;46911;32.650;-16.902;2023-10-19T01:57:01;6.25;;;1.27;;
61025;SDS011;46911;32.650;-16.902;2023-10-19T01:59:08;7.13;;;1.00;;
61025;SDS011;46911;32.650;-16.902;2023-10-19T02:01:09;10.23;;;1.65;;
61025;SDS011;46911;32.650;-16.902;2023-10-19T02:03:13;11.63;;;0.80;;
61025;SDS011;46911;32.650;-16.902;2023-10-19T02:05:18;8.27;;;1.00;;
61025;SDS011;46911;32.650;-16.902;2023-10-19T02:07:21;8.23;;;1.30;;
61025;SDS011;46911;32.650;-16.902;2023-10-19T02:09:23;14.43;;;1.25;;
61025;SDS011;46911;32.650;-16.902;2023-10-19T02:11:29;11.98;;;1.58;;
61025;SDS011;46911;32.650;-16.902;2023-10-19T02:13:32;7.78;;;0.90;;
61025;SDS011;46911;32.650;-16.902;2023-10-19T02:15:33;7.38;;;2.00;;
61025;SDS011;46911;32.650;-16.902;2023-10-19T02:17:40;5.93;;;1.10;;
61025;SDS011;46911;32.650;-16.902;2023-10-19T02:19:44;5.50;;;0.82;;
61025;SDS011;46911;32.650;-16.902;2023-10-19T02:22:03;7.38;;;0.90;;
61025;SDS011;46911;32.650;-16.902;2023-10-19T02:24:07;6.68;;;0.68;;
61025;SDS011;46911;32.650;-16.902;2023-10-19T02:26:17;9.25;;;1.58;;
61025;SDS011;46911;32.650;-16.902;2023-10-19T02:28:21;8.65;;;1.23;;
61025;SDS011;46911;32.650;-16.902;2023-10-19T02:30:29;8.68;;;1.02;;
61025;SDS011;46911;32.650;-16.902;2023-10-19T02:32:33;6.93;;;0.93;;
61025;SDS011;46911;32.650;-16.902;2023-10-19T02:34:40;9.98;;;1.48;;
61025;SDS011;46911;32.650;-16.902;2023-10-19T02:36:42;5.38;;;0.80;;
61025;SDS011;46911;32.650;-16.902;2023-10-19T02:38:49;10.45;;;1.05;;
61025;SDS011;46911;32.650;-16.902;2023-10-19T02:40:56;7.95;;;1.17;;
61025;SDS011;46911;32.650;-16.902;2023-10-19T02:42:59;8.30;;;1.20;;
61025;SDS011;46911;32.650;-16.902;2023-10-19T02:45:03;8.05;;;1.17;;
61025;SDS011;46911;32.650;-16.902;2023-10-19T02:47:10;7.90;;;0.80;;
61025;SDS011;46911;32.650;-16.902;2023-10-19T02:49:13;6.35;;;1.63;;
61025;SDS011;46911;32.650;-16.902;2023-10-19T02:51:18;13.20;;;1.30;;
61025;SDS011;46911;32.650;-16.902;2023-10-19T02:53:19;8.43;;;1.23;;
61025;SDS011;46911;32.650;-16.902;2023-10-19T02:55:24;5.55;;;0.68;;
61025;SDS011;46911;32.650;-16.902;2023-10-19T02:57:27;7.63;;;0.95;;
61025;SDS011;46911;32.650;-16.902;2023-10-19T02:59:31;7.90;;;1.08;;
61025;SDS011;46911;32.650;-16.902;2023-10-19T03:01:35;9.32;;;1.25;;
61025;SDS011;46911;32.650;-16.902;2023-10-19T03:03:36;8.57;;;1.50;;
61025;SDS011;46911;32.650;-16.902;2023-10-19T03:05:37;8.82;;;1.10;;
61025;SDS011;46911;32.650;-16.902;2023-10-19T03:07:39;6.55;;;1.10;;
61025;SDS011;46911;32.650;-16.902;2023-10-19T03:09:46;10.05;;;1.08;;
61025;SDS011;46911;32.650;-16.902;2023-10-19T03:11:56;10.18;;;1.13;;
61025;SDS011;46911;32.650;-16.902;2023-10-19T03:14:05;9.25;;;1.55;;
61025;SDS011;46911;32.650;-16.902;2023-10-19T03:16:07;10.07;;;1.40;;
61025;SDS011;46911;32.650;-16.902;2023-10-19T03:18:08;6.20;;;1.20;;
61025;SDS011;46911;32.650;-16.902;2023-10-19T03:20:09;9.00;;;1.08;;
61025;SDS011;46911;32.650;-16.902;2023-10-19T03:22:11;6.70;;;1.50;;
61025;SDS011;46911;32.650;-16.902;2023-10-19T03:24:12;19.73;;;1.23;;
61025;SDS011;46911;32.650;-16.902;2023-10-19T03:26:16;15.27;;;1.73;;
61025;SDS011;46911;32.650;-16.902;2023-10-19T03:28:28;9.38;;;1.83;;
61025;SDS011;46911;32.650;-16.902;2023-10-19T03:30:38;6.68;;;1.00;;
61025;SDS011;46911;32.650;-16.902;2023-10-19T03:32:44;16.95;;;1.70;;
61025;SDS011;46911;32.650;-16.902;2023-10-19T03:34:48;18.45;;;1.42;;
61025;SDS011;46911;32.650;-16.902;2023-10-19T03:36:55;12.00;;;1.40;;
61025;SDS011;46911;32.650;-16.902;2023-10-19T03:38:56;5.43;;;1.00;;
61025;SDS011;46911;32.650;-16.902;2023-10-19T03:41:13;7.05;;;0.77;;
61025;SDS011;46911;32.650;-16.902;2023-10-19T03:43:14;13.43;;;1.77;;
61025;SDS011;46911;32.650;-16.902;2023-10-19T03:45:21;9.35;;;1.30;;
61025;SDS011;46911;32.650;-16.902;2023-10-19T03:47:24;11.88;;;1.77;;
61025;SDS011;46911;32.650;-16.902;2023-10-19T03:49:39;14.63;;;2.35;;
61025;SDS011;46911;32.650;-16.902;2023-10-19T03:51:41;9.30;;;1.70;;
61025;SDS011;46911;32.650;-16.902;2023-10-19T03:53:58;5.47;;;1.25;;
61025;SDS011;46911;32.650;-16.902;2023-10-19T03:56:03;15.07;;;1.98;;
61025;SDS011;46911;32.650;-16.902;2023-10-19T03:58:13;9.93;;;1.30;;
61025;SDS011;46911;32.650;-16.902;2023-10-19T04:00:14;11.10;;;1.58;;
61025;SDS011;46911;32.650;-16.902;2023-10-19T04:02:16;14.40;;;1.55;;
61025;SDS011;46911;32.650;-16.902;2023-10-19T04:04:35;12.70;;;1.30;;
61025;SDS011;46911;32.650;-16.902;2023-10-19T04:06:36;9.15;;;1.38;;
61025;SDS011;46911;32.650;-16.902;2023-10-19T04:08:43;16.23;;;2.58;;
61025;SDS011;46911;32.650;-16.902;2023-10-19T04:10:51;14.82;;;1.60;;
61025;SDS011;46911;32.650;-16.902;2023-10-19T04:13:20;9.68;;;1.50;;
61025;SDS011;46911;32.650;-16.902;2023-10-19T04:15:21;15.32;;;1.83;;
61025;SDS011;46911;32.650;-16.902;2023-10-19T04:17:22;15.70;;;1.95;;
61025;SDS011;46911;32.650;-16.902;2023-10-19T04:19:29;12.30;;;1.77;;
61025;SDS011;46911;32.650;-16.902;2023-10-19T04:21:32;16.92;;;2.25;;
61025;SDS011;46911;32.650;-16.902;2023-10-19T04:23:36;17.00;;;2.30;;
61025;SDS011;46911;32.650;-16.902;2023-10-19T04:25:39;17.77;;;2.08;;
61025;SDS011;46911;32.650;-16.902;2023-10-19T04:27:43;11.25;;;1.30;;
61025;SDS011;46911;32.650;-16.902;2023-10-19T04:29:47;19.50;;;2.40;;
61025;SDS011;46911;32.650;-16.902;2023-10-19T04:31:54;11.02;;;2.10;;
61025;SDS011;46911;32.650;-16.902;2023-10-19T04:33:55;16.60;;;1.55;;
61025;SDS011;46911;32.650;-16.902;2023-10-19T04:35:58;23.15;;;3.17;;
61025;SDS011;46911;32.650;-16.902;2023-10-19T04:38:04;12.48;;;2.17;;
61025;SDS011;46911;32.650;-16.902;2023-10-19T04:40:11;18.08;;;2.22;;
61025;SDS011;46911;32.650;-16.902;2023-10-19T04:42:16;12.75;;;1.70;;
61025;SDS011;46911;32.650;-16.902;2023-10-19T04:44:19;14.15;;;1.80;;
61025;SDS011;46911;32.650;-16.902;2023-10-19T04:46:20;22.25;;;3.13;;
61025;SDS011;46911;32.650;-16.902;2023-10-19T04:48:22;14.27;;;1.83;;
61025;SDS011;46911;32.650;-16.902;2023-10-19T04:50:23;9.75;;;1.45;;
61025;SDS011;46911;32.650;-16.902;2023-10-19T04:52:24;17.98;;;2.03;;
61025;SDS011;46911;32.650;-16.902;2023-10-19T04:54:25;17.17;;;1.70;;
61025;SDS011;46911;32.650;-16.902;2023-10-19T04:56:27;13.07;;;1.75;;
61025;SDS011;46911;32.650;-16.902;2023-10-19T04:58:28;14.88;;;1.95;;
61025;SDS011;46911;32.650;-16.902;2023-10-19T05:00:31;13.27;;;1.67;;
61025;SDS011;46911;32.650;-16.902;2023-10-19T05:02:38;12.52;;;2.08;;
61025;SDS011;46911;32.650;-16.902;2023-10-19T05:04:44;21.35;;;3.80;;
61025;SDS011;46911;32.650;-16.902;2023-10-19T05:06:51;14.52;;;2.13;;
61025;SDS011;46911;32.650;-16.902;2023-10-19T05:08:51;14.02;;;1.67;;
61025;SDS011;46911;32.650;-16.902;2023-10-19T05:10:53;11.50;;;1.95;;
61025;SDS011;46911;32.650;-16.902;2023-10-19T05:12:55;11.48;;;1.70;;
61025;SDS011;46911;32.650;-16.902;2023-10-19T05:14:56;17.08;;;2.22;;
61025;SDS011;46911;32.650;-16.902;2023-10-19T05:16:59;8.95;;;2.10;;
61025;SDS011;46911;32.650;-16.902;2023-10-19T05:19:00;8.48;;;2.13;;
61025;SDS011;46911;32.650;-16.902;2023-10-19T05:21:01;15.00;;;2.30;;
61025;SDS011;46911;32.650;-16.902;2023-10-19T05:23:08;13.88;;;1.88;;
61025;SDS011;46911;32.650;-16.902;2023-10-19T05:25:15;14.05;;;2.28;;
61025;SDS011;46911;32.650;-16.902;2023-10-19T05:27:18;16.02;;;2.10;;
61025;SDS011;46911;32.650;-16.902;2023-10-19T05:29:25;8.45;;;1.55;;
61025;SDS011;46911;32.650;-16.902;2023-10-19T05:31:31;8.93;;;1.25;;
61025;SDS011;46911;32.650;-16.902;2023-10-19T05:33:32;9.85;;;1.33;;
61025;SDS011;46911;32.650;-16.902;2023-10-19T05:35:33;8.38;;;1.10;;
61025;SDS011;46911;32.650;-16.902;2023-10-19T05:37:40;7.13;;;1.23;;
61025;SDS011;46911;32.650;-16.902;2023-10-19T05:39:42;10.63;;;1.50;;
61025;SDS011;46911;32.650;-16.902;2023-10-19T05:41:42;11.02;;;1.17;;
61025;SDS011;46911;32.650;-16.902;2023-10-19T05:43:49;14.65;;;1.58;;
61025;SDS011;46911;32.650;-16.902;2023-10-19T05:45:55;12.38;;;2.08;;
61025;SDS011;46911;32.650;-16.902;2023-10-19T05:47:57;7.40;;;1.05;;
61025;SDS011;46911;32.650;-16.902;2023-10-19T05:49:58;13.75;;;1.50;;
61025;SDS011;46911;32.650;-16.902;2023-10-19T05:51:59;9.10;;;1.48;;
61025;SDS011;46911;32.650;-16.902;2023-10-19T05:54:03;7.03;;;1.42;;
61025;SDS011;46911;32.650;-16.902;2023-10-19T05:56:05;11.93;;;1.67;;
61025;SDS011;46911;32.650;-16.902;2023-10-19T05:58:07;16.23;;;1.95;;
61025;SDS011;46911;32.650;-16.902;2023-10-19T06:00:09;14.82;;;2.45;;
61025;SDS011;46911;32.650;-16.902;2023-10-19T06:02:21;13.85;;;2.03;;
61025;SDS011;46911;32.650;-16.902;2023-10-19T06:04:22;10.07;;;2.08;;
61025;SDS011;46911;32.650;-16.902;2023-10-19T06:06:23;18.48;;;2.28;;
61025;SDS011;46911;32.650;-16.902;2023-10-19T06:08:27;12.82;;;2.10;;
61025;SDS011;46911;32.650;-16.902;2023-10-19T06:10:29;15.75;;;2.00;;
61025;SDS011;46911;32.650;-16.902;2023-10-19T06:12:32;12.73;;;1.52;;
61025;SDS011;46911;32.650;-16.902;2023-10-19T06:14:34;12.38;;;1.63;;
61025;SDS011;46911;32.650;-16.902;2023-10-19T06:16:35;10.73;;;1.60;;
61025;SDS011;46911;32.650;-16.902;2023-10-19T06:18:42;8.38;;;1.48;;
61025;SDS011;46911;32.650;-16.902;2023-10-19T06:20:44;10.02;;;1.52;;
61025;SDS011;46911;32.650;-16.902;2023-10-19T06:22:47;8.45;;;1.40;;
61025;SDS011;46911;32.650;-16.902;2023-10-19T06:24:53;10.75;;;1.60;;
61025;SDS011;46911;32.650;-16.902;2023-10-19T06:26:54;11.90;;;1.05;;
61025;SDS011;46911;32.650;-16.902;2023-10-19T06:28:55;15.70;;;2.13;;
61025;SDS011;46911;32.650;-16.902;2023-10-19T06:30:59;12.63;;;1.90;;
61025;SDS011;46911;32.650;-16.902;2023-10-19T06:33:00;13.82;;;1.67;;
61025;SDS011;46911;32.650;-16.902;2023-10-19T06:35:03;7.68;;;1.48;;
61025;SDS011;46911;32.650;-16.902;2023-10-19T06:37:06;10.13;;;1.50;;
61025;SDS011;46911;32.650;-16.902;2023-10-19T06:39:11;10.55;;;1.65;;
61025;SDS011;46911;32.650;-16.902;2023-10-19T06:41:15;9.25;;;1.70;;
61025;SDS011;46911;32.650;-16.902;2023-10-19T06:43:19;12.88;;;1.65;;
61025;SDS011;46911;32.650;-16.902;2023-10-19T06:45:24;17.55;;;2.00;;
61025;SDS011;46911;32.650;-16.902;2023-10-19T06:47:30;10.88;;;1.92;;
61025;SDS011;46911;32.650;-16.902;2023-10-19T06:51:40;6.03;;;1.17;;
61025;SDS011;46911;32.650;-16.902;2023-10-19T06:53:44;7.13;;;1.80;;
61025;SDS011;46911;32.650;-16.902;2023-10-19T06:55:45;8.07;;;1.88;;
61025;SDS011;46911;32.650;-16.902;2023-10-19T06:57:52;9.55;;;2.47;;
61025;SDS011;46911;32.650;-16.902;2023-10-19T06:59:54;10.07;;;1.95;;
61025;SDS011;46911;32.650;-16.902;2023-10-19T07:01:55;15.52;;;2.50;;
61025;SDS011;46911;32.650;-16.902;2023-10-19T07:03:56;10.30;;;1.65;;
61025;SDS011;46911;32.650;-16.902;2023-10-19T07:05:57;11.05;;;1.77;;
61025;SDS011;46911;32.650;-16.902;2023-10-19T07:08:01;10.93;;;1.55;;
61025;SDS011;46911;32.650;-16.902;2023-10-19T07:10:03;11.73;;;1.65;;
61025;SDS011;46911;32.650;-16.902;2023-10-19T07:12:04;14.88;;;1.98;;
61025;SDS011;46911;32.650;-16.902;2023-10-19T07:14:08;11.00;;;1.92;;
61025;SDS011;46911;32.650;-16.902;2023-10-19T07:16:13;14.68;;;2.20;;
61025;SDS011;46911;32.650;-16.902;2023-10-19T07:18:17;14.55;;;2.38;;
61025;SDS011;46911;32.650;-16.902;2023-10-19T07:20:23;14.10;;;3.72;;
61025;SDS011;46911;32.650;-16.902;2023-10-19T07:22:29;21.08;;;2.58;;
61025;SDS011;46911;32.650;-16.902;2023-10-19T07:24:31;31.13;;;3.72;;
61025;SDS011;46911;32.650;-16.902;2023-10-19T07:26:36;26.83;;;4.15;;
61025;SDS011;46911;32.650;-16.902;2023-10-19T07:28:51;17.02;;;2.38;;
61025;SDS011;46911;32.650;-16.902;2023-10-19T07:30:52;25.98;;;2.38;;
61025;SDS011;46911;32.650;-16.902;2023-10-19T07:32:54;15.70;;;2.20;;
61025;SDS011;46911;32.650;-16.902;2023-10-19T07:35:00;25.00;;;2.88;;
61025;SDS011;46911;32.650;-16.902;2023-10-19T07:37:04;31.52;;;2.45;;
61025;SDS011;46911;32.650;-16.902;2023-10-19T07:39:10;18.75;;;2.92;;
61025;SDS011;46911;32.650;-16.902;2023-10-19T07:41:22;27.23;;;3.05;;
61025;SDS011;46911;32.650;-16.902;2023-10-19T07:43:23;18.65;;;2.55;;
61025;SDS011;46911;32.650;-16.902;2023-10-19T07:45:25;28.45;;;2.60;;
61025;SDS011;46911;32.650;-16.902;2023-10-19T07:47:26;15.70;;;2.42;;
61025;SDS011;46911;32.650;-16.902;2023-10-19T07:49:30;20.15;;;2.15;;
61025;SDS011;46911;32.650;-16.902;2023-10-19T07:51:33;21.98;;;2.60;;
61025;SDS011;46911;32.650;-16.902;2023-10-19T07:53:34;19.77;;;3.03;;
61025;SDS011;46911;32.650;-16.902;2023-10-19T07:55:36;17.90;;;2.90;;
61025;SDS011;46911;32.650;-16.902;2023-10-19T07:57:41;22.83;;;2.50;;
61025;SDS011;46911;32.650;-16.902;2023-10-19T07:59:48;18.98;;;2.65;;
61025;SDS011;46911;32.650;-16.902;2023-10-19T08:01:49;22.88;;;3.10;;
61025;SDS011;46911;32.650;-16.902;2023-10-19T08:03:50;16.80;;;2.63;;
61025;SDS011;46911;32.650;-16.902;2023-10-19T08:05:54;15.75;;;2.92;;
61025;SDS011;46911;32.650;-16.902;2023-10-19T08:07:55;20.67;;;2.30;;
61025;SDS011;46911;32.650;-16.902;2023-10-19T08:09:58;23.60;;;2.38;;
61025;SDS011;46911;32.650;-16.902;2023-10-19T08:12:02;20.95;;;2.97;;
61025;SDS011;46911;32.650;-16.902;2023-10-19T08:14:06;22.02;;;3.17;;
61025;SDS011;46911;32.650;-16.902;2023-10-19T08:16:09;25.98;;;3.42;;
61025;SDS011;46911;32.650;-16.902;2023-10-19T08:18:14;30.95;;;3.38;;
61025;SDS011;46911;32.650;-16.902;2023-10-19T08:20:21;24.35;;;3.20;;
61025;SDS011;46911;32.650;-16.902;2023-10-19T08:22:32;16.67;;;2.58;;
61025;SDS011;46911;32.650;-16.902;2023-10-19T08:24:33;23.27;;;2.70;;
61025;SDS011;46911;32.650;-16.902;2023-10-19T08:26:35;20.65;;;2.83;;
61025;SDS011;46911;32.650;-16.902;2023-10-19T08:28:42;23.13;;;3.05;;
61025;SDS011;46911;32.650;-16.902;2023-10-19T08:30:42;21.80;;;3.33;;
61025;SDS011;46911;32.650;-16.902;2023-10-19T08:32:45;21.35;;;3.30;;
61025;SDS011;46911;32.650;-16.902;2023-10-19T08:34:49;16.20;;;2.38;;
61025;SDS011;46911;32.650;-16.902;2023-10-19T08:36:50;9.63;;;2.00;;
61025;SDS011;46911;32.650;-16.902;2023-10-19T08:38:54;10.18;;;1.73;;
61025;SDS011;46911;32.650;-16.902;2023-10-19T08:40:57;11.27;;;2.00;;
61025;SDS011;46911;32.650;-16.902;2023-10-19T08:42:58;11.68;;;1.42;;
61025;SDS011;46911;32.650;-16.902;2023-10-19T08:45:02;14.45;;;3.10;;
61025;SDS011;46911;32.650;-16.902;2023-10-19T08:47:08;13.95;;;2.08;;
61025;SDS011;46911;32.650;-16.902;2023-10-19T08:49:11;18.13;;;2.85;;
61025;SDS011;46911;32.650;-16.902;2023-10-19T08:51:13;17.98;;;2.63;;
61025;SDS011;46911;32.650;-16.902;2023-10-19T08:53:17;11.32;;;2.20;;
61025;SDS011;46911;32.650;-16.902;2023-10-19T08:55:19;12.32;;;2.20;;
61025;SDS011;46911;32.650;-16.902;2023-10-19T08:57:21;21.27;;;2.67;;
61025;SDS011;46911;32.650;-16.902;2023-10-19T08:59:23;15.90;;;2.72;;
61025;SDS011;46911;32.650;-16.902;2023-10-19T09:01:24;18.50;;;3.13;;
61025;SDS011;46911;32.650;-16.902;2023-10-19T09:03:28;17.20;;;2.78;;
61025;SDS011;46911;32.650;-16.902;2023-10-19T09:05:37;20.33;;;3.42;;
61025;SDS011;46911;32.650;-16.902;2023-10-19T09:07:40;14.60;;;2.20;;
61025;SDS011;46911;32.650;-16.902;2023-10-19T09:09:44;15.77;;;2.17;;
61025;SDS011;46911;32.650;-16.902;2023-10-19T09:11:47;11.55;;;2.67;;
61025;SDS011;46911;32.650;-16.902;2023-10-19T09:13:52;15.48;;;2.00;;
61025;SDS011;46911;32.650;-16.902;2023-10-19T09:15:55;19.65;;;2.35;;
61025;SDS011;46911;32.650;-16.902;2023-10-19T09:18:12;10.43;;;3.15;;
61025;SDS011;46911;32.650;-16.902;2023-10-19T09:20:23;13.52;;;1.88;;
61025;SDS011;46911;32.650;-16.902;2023-10-19T09:22:38;15.73;;;3.42;;
61025;SDS011;46911;32.650;-16.902;2023-10-19T09:24:47;17.10;;;2.45;;
61025;SDS011;46911;32.650;-16.902;2023-10-19T09:26:53;13.73;;;1.50;;
61025;SDS011;46911;32.650;-16.902;2023-10-19T09:28:54;10.95;;;2.17;;
61025;SDS011;46911;32.650;-16.902;2023-10-19T09:30:55;12.38;;;1.83;;
61025;SDS011;46911;32.650;-16.902;2023-10-19T09:32:56;7.45;;;1.40;;
61025;SDS011;46911;32.650;-16.902;2023-10-19T09:34:58;13.57;;;1.98;;
61025;SDS011;46911;32.650;-16.902;2023-10-19T09:37:04;6.75;;;1.58;;
61025;SDS011;46911;32.650;-16.902;2023-10-19T09:39:09;13.27;;;2.13;;
61025;SDS011;46911;32.650;-16.902;2023-10-19T09:41:13;17.83;;;2.70;;
61025;SDS011;46911;32.650;-16.902;2023-10-19T09:43:21;20.55;;;2.67;;
61025;SDS011;46911;32.650;-16.902;2023-10-19T09:45:30;19.08;;;3.08;;
61025;SDS011;46911;32.650;-16.902;2023-10-19T09:47:38;44.78;;;4.57;;
61025;SDS011;46911;32.650;-16.902;2023-10-19T09:49:41;21.48;;;3.70;;
61025;SDS011;46911;32.650;-16.902;2023-10-19T09:51:50;10.70;;;2.10;;
61025;SDS011;46911;32.650;-16.902;2023-10-19T09:54:00;16.08;;;2.78;;
61025;SDS011;46911;32.650;-16.902;2023-10-19T09:56:17;16.98;;;2.97;;
61025;SDS011;46911;32.650;-16.902;2023-10-19T09:58:27;26.90;;;4.80;;
61025;SDS011;46911;32.650;-16.902;2023-10-19T10:00:35;32.88;;;3.88;;
61025;SDS011;46911;32.650;-16.902;2023-10-19T10:02:36;25.30;;;4.40;;
61025;SDS011;46911;32.650;-16.902;2023-10-19T10:04:39;20.75;;;4.22;;
61025;SDS011;46911;32.650;-16.902;2023-10-19T10:07:03;26.10;;;3.30;;
61025;SDS011;46911;32.650;-16.902;2023-10-19T10:09:06;26.58;;;3.40;;
61025;SDS011;46911;32.650;-16.902;2023-10-19T10:11:19;21.15;;;3.92;;
61025;SDS011;46911;32.650;-16.902;2023-10-19T10:15:37;18.92;;;3.55;;
61025;SDS011;46911;32.650;-16.902;2023-10-19T10:17:40;23.02;;;3.95;;
61025;SDS011;46911;32.650;-16.902;2023-10-19T10:19:41;24.52;;;3.08;;
61025;SDS011;46911;32.650;-16.902;2023-10-19T10:22:03;24.55;;;3.60;;
61025;SDS011;46911;32.650;-16.902;2023-10-19T10:24:14;21.88;;;3.30;;
61025;SDS011;46911;32.650;-16.902;2023-10-19T10:26:16;19.10;;;3.15;;
61025;SDS011;46911;32.650;-16.902;2023-10-19T10:28:21;14.30;;;2.50;;
61025;SDS011;46911;32.650;-16.902;2023-10-19T10:30:24;10.93;;;2.22;;
61025;SDS011;46911;32.650;-16.902;2023-10-19T10:34:56;16.98;;;3.25;;
61025;SDS011;46911;32.650;-16.902;2023-10-19T10:36:58;17.30;;;2.88;;
61025;SDS011;46911;32.650;-16.902;2023-10-19T10:39:08;19.35;;;2.50;;
61025;SDS011;46911;32.650;-16.902;2023-10-19T10:41:23;13.07;;;2.38;;
61025;SDS011;46911;32.650;-16.902;2023-10-19T10:43:47;11.63;;;2.95;;
61025;SDS011;46911;32.650;-16.902;2023-10-19T10:46:02;26.83;;;3.80;;
61025;SDS011;46911;32.650;-16.902;2023-10-19T10:48:11;16.30;;;2.80;;
61025;SDS011;46911;32.650;-16.902;2023-10-19T10:50:12;17.42;;;3.05;;
61025;SDS011;46911;32.650;-16.902;2023-10-19T10:52:23;12.88;;;2.72;;
61025;SDS011;46911;32.650;-16.902;2023-10-19T10:54:36;15.43;;;2.83;;
61025;SDS011;46911;32.650;-16.902;2023-10-19T10:56:43;13.85;;;2.85;;
61025;SDS011;46911;32.650;-16.902;2023-10-19T10:58:47;13.43;;;2.50;;
61025;SDS011;46911;32.650;-16.902;2023-10-19T11:00:51;16.60;;;2.67;;
61025;SDS011;46911;32.650;-16.902;2023-10-19T11:05:05;16.83;;;3.33;;
61025;SDS011;46911;32.650;-16.902;2023-10-19T11:07:18;17.83;;;3.10;;
61025;SDS011;46911;32.650;-16.902;2023-10-19T11:09:24;17.13;;;3.40;;
61025;SDS011;46911;32.650;-16.902;2023-10-19T11:11:26;15.93;;;3.97;;
61025;SDS011;46911;32.650;-16.902;2023-10-19T11:13:29;15.40;;;3.45;;
61025;SDS011;46911;32.650;-16.902;2023-10-19T11:15:33;16.05;;;3.13;;
61025;SDS011;46911;32.650;-16.902;2023-10-19T11:17:41;24.10;;;4.10;;
61025;SDS011;46911;32.650;-16.902;2023-10-19T11:19:45;16.83;;;3.20;;
61025;SDS011;46911;32.650;-16.902;2023-10-19T11:21:55;19.63;;;2.85;;
61025;SDS011;46911;32.650;-16.902;2023-10-19T11:23:57;20.92;;;3.80;;
61025;SDS011;46911;32.650;-16.902;2023-10-19T11:26:01;17.85;;;4.03;;
61025;SDS011;46911;32.650;-16.902;2023-10-19T11:28:07;14.82;;;3.58;;
61025;SDS011;46911;32.650;-16.902;2023-10-19T11:32:38;24.75;;;4.38;;
61025;SDS011;46911;32.650;-16.902;2023-10-19T11:34:39;20.02;;;3.72;;
61025;SDS011;46911;32.650;-16.902;2023-10-19T11:36:41;15.52;;;3.13;;
61025;SDS011;46911;32.650;-16.902;2023-10-19T11:38:43;15.40;;;3.30;;
61025;SDS011;46911;32.650;-16.902;2023-10-19T11:40:45;13.82;;;3.47;;
61025;SDS011;46911;32.650;-16.902;2023-10-19T11:42:46;16.83;;;3.33;;
61025;SDS011;46911;32.650;-16.902;2023-10-19T11:44:51;19.13;;;3.00;;
61025;SDS011;46911;32.650;-16.902;2023-10-19T11:46:53;15.35;;;3.08;;
61025;SDS011;46911;32.650;-16.902;2023-10-19T11:48:56;17.10;;;4.00;;
61025;SDS011;46911;32.650;-16.902;2023-10-19T11:50:57;16.33;;;3.42;;
61025;SDS011;46911;32.650;-16.902;2023-10-19T11:52:58;18.73;;;4.15;;
61025;SDS011;46911;32.650;-16.902;2023-10-19T11:55:02;15.23;;;3.83;;
61025;SDS011;46911;32.650;-16.902;2023-10-19T11:57:05;17.50;;;3.25;;
61025;SDS011;46911;32.650;-16.902;2023-10-19T11:59:09;15.93;;;3.40;;
61025;SDS011;46911;32.650;-16.902;2023-10-19T12:01:12;14.23;;;2.33;;
61025;SDS011;46911;32.650;-16.902;2023-10-19T12:03:14;18.50;;;3.25;;
61025;SDS011;46911;32.650;-16.902;2023-10-19T12:05:15;15.70;;;3.40;;
61025;SDS011;46911;32.650;-16.902;2023-10-19T12:07:16;21.88;;;3.70;;
61025;SDS011;46911;32.650;-16.902;2023-10-19T12:09:17;18.33;;;4.35;;
61025;SDS011;46911;32.650;-16.902;2023-10-19T12:11:27;24.30;;;4.93;;
61025;SDS011;46911;32.650;-16.902;2023-10-19T12:13:28;20.17;;;5.47;;
61025;SDS011;46911;32.650;-16.902;2023-10-19T12:15:32;28.98;;;5.90;;
61025;SDS011;46911;32.650;-16.902;2023-10-19T12:17:33;29.52;;;6.78;;